Fort Pike — WAA9418 — position and weather

sailwx.info

Track history (hours):
 
Tides and Currents Weather Stations Pressure Air Temp Water Temp Dewpoint Dewpoint Depression Visibility Wind Speed Wind Dir Waves Ship Positions

Fort Pike

Owner: Salisbury Towing Corporation, Chesapeak, VA. More information available from US FCC via Universal Licensing System and Coast Guard Vessel Documentation Center.

Last reported at 2014-Oct-21 13:32 UTC. Time now 2014-Nov-01 13:26 UTC.
Position N 36°57' W 076°24'.
Warning: this ship's position is 10 days out of date.

Length 18 m; draft 10.5 m.

Type: Tug. MMSI: 366948310.

Date/timePositionNaut miles runAvg speedWind from/ knotsBaromVisibWave heightAir tempDewpointWater temp
2014-Oct-21 13:32N 36°57' W 076°24'8 0.7
2014-Oct-21 01:32N 36°50' W 076°17'0 0.3
2014-Oct-21 00:16N 36°50' W 076°17'1 1.1
2014-Oct-20 23:17N 36°50' W 076°16'2 1.8
2014-Oct-20 22:22N 36°50' W 076°18'4 3.1
2014-Oct-20 21:12N 36°46' W 076°18'4 0.1
2014-Oct-19 08:25N 36°50' W 076°17'0 0.0
2014-Oct-19 07:32N 36°50' W 076°17'0 0.0
2014-Oct-19 06:32N 36°50' W 076°17'0 0.0
2014-Oct-19 05:29N 36°50' W 076°17'0 0.0
2014-Oct-19 04:33N 36°50' W 076°17'0 0.0
2014-Oct-19 03:32N 36°50' W 076°17'0 0.0
2014-Oct-19 02:33N 36°50' W 076°17'0 0.0
2014-Oct-19 01:33N 36°50' W 076°17'0 0.0
2014-Oct-19 00:33N 36°50' W 076°17'0 0.0
2014-Oct-18 23:13N 36°50' W 076°17'0 0.0
2014-Oct-18 22:33N 36°50' W 076°17'0 0.0
2014-Oct-18 21:23N 36°50' W 076°17'1 1.0
2014-Oct-18 20:33N 36°50' W 076°16'3 2.7
2014-Oct-18 19:29N 36°52' W 076°19'5 5.6
2014-Oct-18 18:33N 36°57' W 076°21'3 3.3
2014-Oct-18 17:33N 37°00' W 076°20'1 0.8
2014-Oct-18 16:29N 36°60' W 076°21'3 2.8
2014-Oct-18 15:33N 36°60' W 076°18'5 5.1
2014-Oct-18 14:32N 37°03' W 076°13'6 6.1
2014-Oct-18 13:33N 37°08' W 076°09'7 5.3
2014-Oct-18 12:09N 37°14' W 076°03'2 0.5
2014-Oct-18 08:23N 37°13' W 076°04'4 5.2
2014-Oct-18 07:33N 37°09' W 076°08'6 5.2
2014-Oct-18 06:24N 37°04' W 076°12'5 4.5
2014-Oct-18 05:21N 37°01' W 076°16'5 5.9
2014-Oct-18 04:26N 36°57' W 076°20'5 5.7
2014-Oct-18 03:31N 36°52' W 076°19'3 2.8
2014-Oct-18 02:32N 36°50' W 076°16'0 0.1
2014-Oct-18 01:34N 36°50' W 076°16'5 3.6
2014-Oct-18 00:17N 36°46' W 076°18'2 0.1
2014-Oct-16 12:13N 36°48' W 076°18'3 2.9
2014-Oct-16 11:16N 36°50' W 076°16'0 0.2
2014-Oct-16 10:24N 36°50' W 076°16'5 2.9
2014-Oct-16 08:31N 36°54' W 076°20'4 3.3
2014-Oct-16 07:26N 36°57' W 076°23'9 0.2
2014-Oct-14 14:29N 36°50' W 076°16'0 0.4
2014-Oct-14 13:22N 36°50' W 076°16'2 2.0
2014-Oct-14 12:32N 36°49' W 076°17'1 0.7
2014-Oct-14 10:31N 36°48' W 076°18'3 2.4
2014-Oct-14 09:22N 36°50' W 076°17'0 0.0
2014-Oct-14 08:23N 36°50' W 076°17'0 0.0
2014-Oct-14 07:31N 36°50' W 076°17'0 0.0
2014-Oct-14 06:33N 36°50' W 076°17'0 0.0
2014-Oct-14 05:18N 36°50' W 076°17'0 0.0
2014-Oct-14 04:23N 36°50' W 076°17'0 0.0
2014-Oct-14 03:32N 36°50' W 076°17'0 0.0
2014-Oct-14 02:33N 36°50' W 076°17'0 0.0
2014-Oct-14 01:31N 36°50' W 076°17'0 0.0
2014-Oct-14 00:30N 36°50' W 076°17'1 0.1
2014-Oct-13 13:32N 36°50' W 076°16'2 0.4
2014-Oct-13 09:19N 36°49' W 076°17'1 0.6
2014-Oct-13 07:29N 36°50' W 076°17'0 0.0
2014-Oct-13 06:33N 36°50' W 076°17'0 0.0
2014-Oct-13 05:33N 36°50' W 076°17'0 0.0
2014-Oct-13 04:33N 36°50' W 076°17'0 0.0
2014-Oct-13 03:31N 36°50' W 076°17'0 0.0
2014-Oct-13 02:29N 36°50' W 076°17'0 0.0
2014-Oct-13 01:30N 36°50' W 076°17'0 0.0
2014-Oct-13 00:33N 36°50' W 076°17'0 0.0
2014-Oct-12 23:31N 36°50' W 076°17'0 0.0
2014-Oct-12 22:33N 36°50' W 076°17'2 1.6
2014-Oct-12 21:30N 36°50' W 076°15'12 0.7
2014-Oct-12 05:11N 37°01' W 076°21'5 2.8
2014-Oct-12 03:33N 36°56' W 076°20'6 6.5
2014-Oct-12 02:32N 36°50' W 076°17'1 1.4
2014-Oct-12 01:33N 36°49' W 076°17'0 0.0
2014-Oct-12 00:33N 36°49' W 076°17'2 1.8
2014-Oct-11 23:33N 36°50' W 076°16'4 4.0
2014-Oct-11 22:33N 36°53' W 076°20'4 4.3
2014-Oct-11 21:30N 36°57' W 076°21'6 5.4
2014-Oct-11 20:25N 36°60' W 076°28'  
Track history (hours):
 
Tides and Currents Weather Stations Pressure Air Temp Water Temp Dewpoint Dewpoint Depression Visibility Wind Speed Wind Dir Waves Ship Positions

Fort Pike

Owner: Salisbury Towing Corporation, Chesapeak, VA. More information available from US FCC via Universal Licensing System and Coast Guard Vessel Documentation Center.

Last reported at 2014-Oct-21 13:32 UTC. Time now 2014-Nov-01 13:26 UTC.
Position N 36°57' W 076°24'.
Warning: this ship's position is 10 days out of date.

Length 18 m; draft 10.5 m.

Type: Tug. MMSI: 366948310.

Date/timePositionNaut miles runAvg speedWind from/ knotsBaromVisibWave heightAir tempDewpointWater temp
2014-Oct-21 13:32N 36°57' W 076°24'8 0.7
2014-Oct-21 01:32N 36°50' W 076°17'0 0.3
2014-Oct-21 00:16N 36°50' W 076°17'1 1.1
2014-Oct-20 23:17N 36°50' W 076°16'2 1.8
2014-Oct-20 22:22N 36°50' W 076°18'4 3.1
2014-Oct-20 21:12N 36°46' W 076°18'4 0.1
2014-Oct-19 08:25N 36°50' W 076°17'0 0.0
2014-Oct-19 07:32N 36°50' W 076°17'0 0.0
2014-Oct-19 06:32N 36°50' W 076°17'0 0.0
2014-Oct-19 05:29N 36°50' W 076°17'0 0.0
2014-Oct-19 04:33N 36°50' W 076°17'0 0.0
2014-Oct-19 03:32N 36°50' W 076°17'0 0.0
2014-Oct-19 02:33N 36°50' W 076°17'0 0.0
2014-Oct-19 01:33N 36°50' W 076°17'0 0.0
2014-Oct-19 00:33N 36°50' W 076°17'0 0.0
2014-Oct-18 23:13N 36°50' W 076°17'0 0.0
2014-Oct-18 22:33N 36°50' W 076°17'0 0.0
2014-Oct-18 21:23N 36°50' W 076°17'1 1.0
2014-Oct-18 20:33N 36°50' W 076°16'3 2.7
2014-Oct-18 19:29N 36°52' W 076°19'5 5.6
2014-Oct-18 18:33N 36°57' W 076°21'3 3.3
2014-Oct-18 17:33N 37°00' W 076°20'1 0.8
2014-Oct-18 16:29N 36°60' W 076°21'3 2.8
2014-Oct-18 15:33N 36°60' W 076°18'5 5.1
2014-Oct-18 14:32N 37°03' W 076°13'6 6.1
2014-Oct-18 13:33N 37°08' W 076°09'7 5.3
2014-Oct-18 12:09N 37°14' W 076°03'2 0.5
2014-Oct-18 08:23N 37°13' W 076°04'4 5.2
2014-Oct-18 07:33N 37°09' W 076°08'6 5.2
2014-Oct-18 06:24N 37°04' W 076°12'5 4.5
2014-Oct-18 05:21N 37°01' W 076°16'5 5.9
2014-Oct-18 04:26N 36°57' W 076°20'5 5.7
2014-Oct-18 03:31N 36°52' W 076°19'3 2.8
2014-Oct-18 02:32N 36°50' W 076°16'0 0.1
2014-Oct-18 01:34N 36°50' W 076°16'5 3.6
2014-Oct-18 00:17N 36°46' W 076°18'2 0.1
2014-Oct-16 12:13N 36°48' W 076°18'3 2.9
2014-Oct-16 11:16N 36°50' W 076°16'0 0.2
2014-Oct-16 10:24N 36°50' W 076°16'5 2.9
2014-Oct-16 08:31N 36°54' W 076°20'4 3.3
2014-Oct-16 07:26N 36°57' W 076°23'9 0.2
2014-Oct-14 14:29N 36°50' W 076°16'0 0.4
2014-Oct-14 13:22N 36°50' W 076°16'2 2.0
2014-Oct-14 12:32N 36°49' W 076°17'1 0.7
2014-Oct-14 10:31N 36°48' W 076°18'3 2.4
2014-Oct-14 09:22N 36°50' W 076°17'0 0.0
2014-Oct-14 08:23N 36°50' W 076°17'0 0.0
2014-Oct-14 07:31N 36°50' W 076°17'0 0.0
2014-Oct-14 06:33N 36°50' W 076°17'0 0.0
2014-Oct-14 05:18N 36°50' W 076°17'0 0.0
2014-Oct-14 04:23N 36°50' W 076°17'0 0.0
2014-Oct-14 03:32N 36°50' W 076°17'0 0.0
2014-Oct-14 02:33N 36°50' W 076°17'0 0.0
2014-Oct-14 01:31N 36°50' W 076°17'0 0.0
2014-Oct-14 00:30N 36°50' W 076°17'1 0.1
2014-Oct-13 13:32N 36°50' W 076°16'2 0.4
2014-Oct-13 09:19N 36°49' W 076°17'1 0.6
2014-Oct-13 07:29N 36°50' W 076°17'0 0.0
2014-Oct-13 06:33N 36°50' W 076°17'0 0.0
2014-Oct-13 05:33N 36°50' W 076°17'0 0.0
2014-Oct-13 04:33N 36°50' W 076°17'0 0.0
2014-Oct-13 03:31N 36°50' W 076°17'0 0.0
2014-Oct-13 02:29N 36°50' W 076°17'0 0.0
2014-Oct-13 01:30N 36°50' W 076°17'0 0.0
2014-Oct-13 00:33N 36°50' W 076°17'0 0.0
2014-Oct-12 23:31N 36°50' W 076°17'0 0.0
2014-Oct-12 22:33N 36°50' W 076°17'2 1.6
2014-Oct-12 21:30N 36°50' W 076°15'12 0.7
2014-Oct-12 05:11N 37°01' W 076°21'5 2.8
2014-Oct-12 03:33N 36°56' W 076°20'6 6.5
2014-Oct-12 02:32N 36°50' W 076°17'1 1.4
2014-Oct-12 01:33N 36°49' W 076°17'0 0.0
2014-Oct-12 00:33N 36°49' W 076°17'2 1.8
2014-Oct-11 23:33N 36°50' W 076°16'4 4.0
2014-Oct-11 22:33N 36°53' W 076°20'4 4.3
2014-Oct-11 21:30N 36°57' W 076°21'6 5.4
2014-Oct-11 20:25N 36°60' W 076°28'  

Dump ship's entire track history